Time;durP1;ratioP1;P1;durP2;ratioP2;P2;SDS_P1;SDS_P2;PMS_P1;PMS_P2;Temp;Humidity;BMP_temperature;BMP_pressure;BME280_temperature;BME280_humidity;BME280_pressure;Samples;Min_cycle;Max_cycle;Signal;HPM_P1;HPM_P2
2022/03/25 00:01:29;;;;;;;19.05;12.38;;;282.00;1305.60;;;;;;4974952;28;20023;-54
2022/03/25 00:03:57;;;;;;;15.48;10.68;;;281.90;1331.20;;;;;;4968260;28;20058;-54
2022/03/25 00:06:23;;;;;;;16.30;11.63;;;282.00;1280.00;;;;;;4964824;28;20458;-56
2022/03/25 00:08:49;;;;;;;13.88;10.88;;;282.20;1280.00;;;;;;4963409;28;20047;-54
2022/03/25 00:11:15;;;;;;;20.10;12.93;;;282.30;1254.40;;;;;;4962510;28;20113;-54
2022/03/25 00:13:41;;;;;;;13.73;10.77;;;282.40;1228.80;;;;;;4963238;28;20063;-55
2022/03/25 00:16:07;;;;;;;16.52;11.65;;;282.40;1228.80;;;;;;4965746;28;20035;-55
2022/03/25 00:18:33;;;;;;;16.58;11.48;;;282.50;1228.80;;;;;;4963540;28;20029;-55
2022/03/25 00:21:00;;;;;;;18.50;11.65;;;282.50;1254.40;;;;;;4965473;28;20026;-54
2022/03/25 00:23:26;;;;;;;18.60;11.85;;;282.50;1228.80;;;;;;4964096;28;20023;-54
2022/03/25 00:25:53;;;;;;;20.08;13.60;;;282.50;1228.80;;;;;;4962466;28;20466;-55
2022/03/25 00:28:20;;;;;;;17.70;12.52;;;307.30;1280.00;;;;;;4965632;28;20046;-54
2022/03/25 00:30:46;;;;;;;21.00;13.43;;;282.30;1254.40;;;;;;4964384;28;20398;-56
2022/03/25 00:33:12;;;;;;;20.75;13.20;;;282.30;1254.40;;;;;;4963856;28;20106;-55
2022/03/25 00:35:39;;;;;;;20.50;14.00;;;282.20;1254.40;;;;;;4967415;28;20028;-55
2022/03/25 00:38:04;;;;;;;20.90;15.05;;;282.10;1280.00;;;;;;4960243;28;20027;-54
2022/03/25 00:40:31;;;;;;;18.77;13.63;;;281.90;1331.20;;;;;;4962587;28;20363;-55
2022/03/25 00:42:57;;;;;;;14.32;11.05;;;281.70;1331.20;;;;;;4954487;28;20389;-55
2022/03/25 00:45:23;;;;;;;14.82;11.00;;;281.70;1305.60;;;;;;4954898;29;20023;-56
2022/03/25 00:47:49;;;;;;;13.88;10.43;;;281.80;1280.00;;;;;;4954804;29;20390;-55
2022/03/25 00:50:16;;;;;;;18.73;12.57;;;281.90;1280.00;;;;;;4954546;29;20019;-57
2022/03/25 00:52:42;;;;;;;17.83;12.05;;;281.70;1305.60;;;;;;4954727;29;20032;-55
2022/03/25 00:55:08;;;;;;;16.17;11.38;;;281.60;1305.60;;;;;;4953826;28;20057;-55
2022/03/25 00:57:34;;;;;;;18.23;12.15;;;281.80;1280.00;;;;;;4954474;29;20023;-56
2022/03/25 01:00:00;;;;;;;16.15;10.77;;;281.80;1254.40;;;;;;4954717;29;20500;-56
2022/03/25 01:02:26;;;;;;;20.52;12.25;;;281.90;1254.40;;;;;;4954289;29;20027;-55
2022/03/25 01:04:52;;;;;;;13.38;11.02;;;282.00;1228.80;;;;;;4954225;29;20051;-57
2022/03/25 01:07:17;;;;;;;18.83;10.68;;;282.00;1228.80;;;;;;4954146;29;20086;-56
2022/03/25 01:09:44;;;;;;;43.47;31.85;;;282.00;1228.80;;;;;;4954231;29;20023;-56
2022/03/25 01:12:11;;;;;;;21.58;11.23;;;282.00;1228.80;;;;;;4954239;29;20470;-57
2022/03/25 01:14:37;;;;;;;22.35;12.80;;;281.90;1228.80;;;;;;4954302;29;20168;-56
2022/03/25 01:17:03;;;;;;;22.95;13.05;;;281.90;1254.40;;;;;;4954316;29;20134;-56
2022/03/25 01:19:29;;;;;;;16.23;10.70;;;282.00;1305.60;;;;;;4954040;29;20026;-55
2022/03/25 01:21:56;;;;;;;16.77;10.38;;;281.60;1305.60;;;;;;4953857;29;20031;-57
2022/03/25 01:24:22;;;;;;;17.08;11.20;;;281.60;1280.00;;;;;;4954147;29;20058;-56
2022/03/25 01:26:49;;;;;;;15.73;10.00;;;281.60;1280.00;;;;;;4953849;29;20115;-56
2022/03/25 01:29:15;;;;;;;17.38;11.52;;;281.70;1280.00;;;;;;4953748;29;20042;-56
2022/03/25 01:31:41;;;;;;;16.65;10.48;;;281.70;1280.00;;;;;;4953905;29;20035;-55
2022/03/25 01:34:07;;;;;;;16.63;11.48;;;281.70;1280.00;;;;;;4953728;29;20223;-56
2022/03/25 01:36:33;;;;;;;16.10;11.45;;;281.60;1280.00;;;;;;4953607;29;20055;-56
2022/03/25 01:38:59;;;;;;;14.75;10.32;;;281.60;1280.00;;;;;;4953775;29;20027;-56
2022/03/25 01:41:26;;;;;;;15.15;10.82;;;281.60;1280.00;;;;;;4953357;29;20090;-56
2022/03/25 01:43:57;;;;;;;14.13;9.88;;;281.70;1280.00;;;;;;4953795;29;20470;-56
2022/03/25 01:46:23;;;;;;;16.45;10.73;;;281.70;1280.00;;;;;;4953705;29;20438;-58
2022/03/25 01:48:50;;;;;;;19.73;12.30;;;281.70;1254.40;;;;;;4953791;29;20046;-56
2022/03/25 01:51:26;;;;;;;17.27;10.82;;;281.70;1254.40;;;;;;4953242;29;20019;-55
2022/03/25 01:53:52;;;;;;;27.48;11.95;;;281.70;1254.40;;;;;;4953380;29;20024;-55
2022/03/25 01:56:22;;;;;;;17.52;12.27;;;281.70;1254.40;;;;;;4947245;29;20035;-56
2022/03/25 01:58:48;;;;;;;19.50;11.80;;;281.70;1254.40;;;;;;4953169;28;20063;-56
2022/03/25 02:01:14;;;;;;;19.25;12.20;;;281.60;1254.40;;;;;;4953049;29;20031;-58
2022/03/25 02:03:41;;;;;;;19.40;10.93;;;281.60;1254.40;;;;;;4953188;29;20047;-55
2022/03/25 02:06:06;;;;;;;16.33;10.82;;;281.60;1254.40;;;;;;4952407;28;20027;-55
2022/03/25 02:08:32;;;;;;;18.02;11.60;;;281.60;1254.40;;;;;;4952656;29;20499;-56
2022/03/25 02:10:58;;;;;;;17.77;12.00;;;281.70;1280.00;;;;;;4953111;29;20023;-56
2022/03/25 02:13:25;;;;;;;17.42;12.02;;;256.90;1254.40;;;;;;4952730;29;20532;-56
2022/03/25 02:15:52;;;;;;;17.40;10.98;;;256.80;1254.40;;;;;;4953260;29;20114;-56
2022/03/25 02:18:18;;;;;;;15.75;11.15;;;256.70;1280.00;;;;;;4952834;29;20540;-55
2022/03/25 02:20:45;;;;;;;55.55;49.55;;;256.60;1280.00;;;;;;4952820;29;20433;-56
2022/03/25 02:23:13;;;;;;;22.02;15.40;;;256.60;1280.00;;;;;;4952952;29;20458;-56
2022/03/25 02:25:40;;;;;;;22.73;13.35;;;256.50;1280.00;;;;;;4953009;29;20110;-56
2022/03/25 02:28:06;;;;;;;19.05;13.07;;;256.50;1305.60;;;;;;4952480;29;20039;-56
2022/03/25 02:30:34;;;;;;;20.58;13.30;;;256.40;1305.60;;;;;;4952953;29;20027;-56
2022/03/25 02:33:02;;;;;;;22.88;14.60;;;256.40;1305.60;;;;;;4952762;29;20086;-56
2022/03/25 02:35:38;;;;;;;21.48;12.32;;;256.40;1305.60;;;;;;4952449;29;20023;-56
2022/03/25 02:38:05;;;;;;;20.20;13.60;;;256.30;1305.60;;;;;;4952574;29;20103;-56
2022/03/25 02:40:31;;;;;;;18.50;12.15;;;256.30;1305.60;;;;;;4952956;29;20426;-55
2022/03/25 02:42:56;;;;;;;20.67;13.55;;;256.30;1305.60;;;;;;4952539;29;20042;-56
2022/03/25 02:45:22;;;;;;;18.30;12.35;;;256.30;1305.60;;;;;;4952784;29;20035;-55
2022/03/25 02:47:48;;;;;;;19.35;12.65;;;256.20;1305.60;;;;;;4952421;29;20516;-56
2022/03/25 02:50:14;;;;;;;18.17;12.43;;;256.30;1331.20;;;;;;4952354;29;20063;-56
2022/03/25 02:52:41;;;;;;;85.00;57.67;;;256.20;1331.20;;;;;;4952364;29;20035;-56
2022/03/25 02:55:08;;;;;;;24.38;15.32;;;256.20;1331.20;;;;;;4952504;29;20031;-56
2022/03/25 02:57:37;;;;;;;20.02;12.57;;;256.20;1331.20;;;;;;4952290;29;20027;-55
2022/03/25 03:00:08;;;;;;;20.95;12.15;;;256.20;1331.20;;;;;;4952546;29;20031;-53
2022/03/25 03:02:37;;;;;;;25.42;12.35;;;256.10;1356.80;;;;;;4952204;29;20122;-55
2022/03/25 03:05:06;;;;;;;20.25;13.75;;;256.00;1356.80;;;;;;4952266;29;20051;-54
2022/03/25 03:07:32;;;;;;;18.88;12.27;;;231.30;1356.80;;;;;;4952006;29;20035;-54
2022/03/25 03:09:58;;;;;;;19.85;12.20;;;231.30;1382.40;;;;;;4952223;29;20035;-55
2022/03/25 03:12:25;;;;;;;67.13;61.08;;;231.30;1382.40;;;;;;4951947;29;20501;-55
2022/03/25 03:14:51;;;;;;;18.92;11.93;;;231.20;1382.40;;;;;;4952462;29;20038;-53
2022/03/25 03:17:16;;;;;;;19.40;13.60;;;231.20;1382.40;;;;;;4952047;28;20031;-54
2022/03/25 03:19:42;;;;;;;20.55;11.95;;;231.20;1382.40;;;;;;4952100;29;20489;-54
2022/03/25 03:22:08;;;;;;;17.85;11.55;;;231.20;1408.00;;;;;;4951858;29;20024;-55
2022/03/25 03:24:34;;;;;;;21.05;12.48;;;231.10;1408.00;;;;;;4952172;29;20414;-54
2022/03/25 03:26:59;;;;;;;19.90;11.55;;;231.10;1408.00;;;;;;4952244;29;20047;-55
2022/03/25 03:29:25;;;;;;;19.95;11.52;;;231.10;1408.00;;;;;;4951712;29;20039;-54
2022/03/25 03:31:51;;;;;;;17.02;11.13;;;231.20;1408.00;;;;;;4952234;29;20043;-54
2022/03/25 03:34:17;;;;;;;17.13;10.60;;;231.20;1408.00;;;;;;4951772;29;20106;-54
2022/03/25 03:36:43;;;;;;;15.70;10.75;;;231.10;1433.60;;;;;;4951844;29;20074;-54
2022/03/25 03:39:11;;;;;;;15.25;10.15;;;231.10;1408.00;;;;;;4951817;29;20509;-54
2022/03/25 03:41:38;;;;;;;19.77;10.00;;;231.10;1408.00;;;;;;4951749;29;20466;-54
2022/03/25 03:44:05;;;;;;;18.63;10.52;;;231.10;1408.00;;;;;;4952066;29;20549;-54
2022/03/25 03:46:30;;;;;;;19.15;11.45;;;231.00;1408.00;;;;;;4952021;29;20393;-54
2022/03/25 03:48:56;;;;;;;16.40;10.20;;;231.10;1408.00;;;;;;4951611;29;20118;-54
2022/03/25 03:51:22;;;;;;;15.75;9.32;;;231.10;1433.60;;;;;;4952060;29;20090;-55
2022/03/25 03:53:47;;;;;;;18.02;9.88;;;231.00;1433.60;;;;;;4951762;29;20079;-54
2022/03/25 03:56:13;;;;;;;14.00;9.10;;;231.00;1433.60;;;;;;4952119;29;20023;-54
2022/03/25 03:58:40;;;;;;;20.23;10.70;;;230.90;1433.60;;;;;;4951939;29;20114;-54
2022/03/25 04:01:06;;;;;;;13.68;10.05;;;230.80;1459.20;;;;;;4951632;29;20027;-54
2022/03/25 04:03:31;;;;;;;16.15;9.82;;;230.90;1459.20;;;;;;4951405;29;20074;-57
2022/03/25 04:05:57;;;;;;;25.73;13.95;;;230.90;1459.20;;;;;;4951490;29;20032;-57
2022/03/25 04:08:23;;;;;;;18.55;10.77;;;230.90;1459.20;;;;;;4951638;29;20046;-54
2022/03/25 04:10:49;;;;;;;13.82;10.13;;;230.90;1433.60;;;;;;4951772;29;20039;-55
2022/03/25 04:13:15;;;;;;;18.50;11.30;;;230.90;1459.20;;;;;;4950824;29;20043;-57
2022/03/25 04:15:40;;;;;;;23.33;11.85;;;230.90;1459.20;;;;;;4951672;29;20027;-56
2022/03/25 04:18:06;;;;;;;17.80;10.75;;;230.80;1459.20;;;;;;4951619;29;20047;-56
2022/03/25 04:20:32;;;;;;;20.70;11.32;;;230.70;1459.20;;;;;;4951620;29;20493;-56
2022/03/25 04:22:58;;;;;;;15.20;9.25;;;230.70;1459.20;;;;;;4951341;29;20029;-56
2022/03/25 04:25:24;;;;;;;12.75;9.40;;;230.60;1484.80;;;;;;4951283;29;20530;-57
2022/03/25 04:27:53;;;;;;;19.50;11.68;;;230.60;1484.80;;;;;;4951674;29;20090;-57
2022/03/25 04:30:24;;;;;;;18.77;11.15;;;230.70;1484.80;;;;;;4953014;28;20049;-57
2022/03/25 04:32:50;;;;;;;16.10;10.73;;;230.50;1510.40;;;;;;4955078;29;20037;-57
2022/03/25 04:35:16;;;;;;;15.93;9.48;;;230.40;1510.40;;;;;;4954791;29;20497;-56
2022/03/25 04:37:41;;;;;;;11.95;8.80;;;230.50;1510.40;;;;;;4954724;29;20015;-57
2022/03/25 04:40:11;;;;;;;15.40;9.65;;;230.50;1510.40;;;;;;4954581;29;20034;-56
2022/03/25 04:42:37;;;;;;;17.08;10.45;;;230.40;1510.40;;;;;;4954518;29;20031;-57
2022/03/25 04:45:03;;;;;;;17.13;10.15;;;230.40;1510.40;;;;;;4955072;29;20878;-57
2022/03/25 04:47:29;;;;;;;17.65;9.88;;;230.50;1484.80;;;;;;4954608;29;20031;-56
2022/03/25 04:49:56;;;;;;;18.20;12.20;;;230.40;1510.40;;;;;;4954336;29;20034;-56
2022/03/25 04:52:21;;;;;;;19.48;10.50;;;205.70;1536.00;;;;;;4954740;29;20035;-56
2022/03/25 04:54:47;;;;;;;16.45;10.38;;;230.40;1536.00;;;;;;4954296;29;20027;-57
2022/03/25 04:57:13;;;;;;;16.42;10.07;;;230.40;1536.00;;;;;;4954603;29;20034;-57
2022/03/25 04:59:38;;;;;;;16.10;9.77;;;230.50;1510.40;;;;;;4954561;29;20071;-57
2022/03/25 05:02:04;;;;;;;16.73;9.98;;;230.50;1510.40;;;;;;4955754;28;20414;-57
2022/03/25 05:04:30;;;;;;;14.07;10.23;;;230.70;1510.40;;;;;;4973546;28;20054;-55
2022/03/25 05:06:56;;;;;;;16.45;9.95;;;230.70;1510.40;;;;;;4973375;28;20023;-54
2022/03/25 05:09:21;;;;;;;22.70;12.10;;;230.80;1484.80;;;;;;4973426;28;20218;-55
2022/03/25 05:11:47;;;;;;;13.20;10.05;;;230.70;1536.00;;;;;;4973235;28;20027;-56
2022/03/25 05:14:14;;;;;;;19.55;10.88;;;230.80;1510.40;;;;;;4973447;28;20045;-57
2022/03/25 05:16:40;;;;;;;14.88;10.23;;;230.80;1510.40;;;;;;4967608;28;20027;-57
2022/03/25 05:19:06;;;;;;;16.13;9.82;;;230.90;1561.60;;;;;;4973339;28;20500;-57
2022/03/25 05:21:31;;;;;;;16.85;10.20;;;230.70;1561.60;;;;;;4973308;28;20038;-57
2022/03/25 05:23:57;;;;;;;19.45;11.13;;;230.70;1536.00;;;;;;4958852;28;20031;-56
2022/03/25 05:26:23;;;;;;;22.98;10.95;;;230.60;1561.60;;;;;;4958575;28;20495;-55
2022/03/25 05:28:48;;;;;;;17.75;11.70;;;230.50;1587.20;;;;;;4973167;28;20038;-57
2022/03/25 05:31:15;;;;;;;18.85;12.13;;;230.40;1587.20;;;;;;4973053;28;20436;-57
2022/03/25 05:33:40;;;;;;;16.83;11.45;;;205.60;1612.80;;;;;;4973039;28;20098;-57
2022/03/25 05:36:06;;;;;;;17.60;10.98;;;205.50;1612.80;;;;;;4972856;28;20110;-57
2022/03/25 05:38:32;;;;;;;16.35;11.27;;;205.60;1612.80;;;;;;4973011;28;20482;-56
2022/03/25 05:40:57;;;;;;;19.75;12.05;;;205.70;1638.40;;;;;;4972670;28;20027;-56
2022/03/25 05:43:23;;;;;;;15.35;10.25;;;205.70;1638.40;;;;;;4972808;28;20038;-54
2022/03/25 05:45:49;;;;;;;17.63;11.75;;;230.40;1612.80;;;;;;4973224;28;20114;-54
2022/03/25 05:48:15;;;;;;;18.02;11.60;;;230.90;1561.60;;;;;;4972680;28;20035;-56
2022/03/25 05:50:40;;;;;;;19.90;11.15;;;256.40;1510.40;;;;;;4972908;28;20074;-55
2022/03/25 05:53:06;;;;;;;19.48;10.95;;;282.20;1433.60;;;;;;4972457;28;20420;-55
2022/03/25 05:55:33;;;;;;;19.52;12.02;;;308.00;1356.80;;;;;;4972604;28;20110;-55
2022/03/25 05:57:58;;;;;;;20.63;12.15;;;333.50;1331.20;;;;;;4972615;28;20033;-55
2022/03/25 06:00:24;;;;;;;18.90;12.02;;;359.00;1280.00;;;;;;4972552;28;20102;-55
2022/03/25 06:02:50;;;;;;;20.67;13.02;;;384.00;1228.80;;;;;;4972683;28;20035;-55
2022/03/25 06:05:17;;;;;;;18.75;13.02;;;410.00;1177.60;;;;;;4972167;28;20047;-55
2022/03/25 06:07:45;;;;;;;17.38;13.45;;;435.90;1100.80;;;;;;4972210;28;20031;-55
2022/03/25 06:10:12;;;;;;;20.05;13.05;;;436.10;1075.20;;;;;;4972280;28;20035;-55
2022/03/25 06:12:39;;;;;;;20.50;12.95;;;486.60;1049.60;;;;;;4971876;28;20034;-55
2022/03/25 06:15:05;;;;;;;20.15;14.63;;;512.20;998.40;;;;;;4972145;28;20031;-58
2022/03/25 06:17:31;;;;;;;17.65;14.52;;;512.70;947.20;;;;;;4972234;28;20027;-59
2022/03/25 06:19:58;;;;;;;17.10;14.80;;;538.00;972.80;;;;;;4972117;28;20042;-58
2022/03/25 06:22:24;;;;;;;20.75;16.13;;;564.00;921.60;;;;;;4972021;28;20089;-58
2022/03/25 06:24:53;;;;;;;17.50;15.13;;;589.70;870.40;;;;;;4972159;28;20046;-59
2022/03/25 06:27:19;;;;;;;17.85;15.10;;;614.80;844.80;;;;;;4972051;28;20466;-61
2022/03/25 06:29:45;;;;;;;20.33;16.45;;;615.10;819.20;;;;;;4971972;28;20367;-63
2022/03/25 06:32:12;;;;;;;22.52;17.92;;;640.60;793.60;;;;;;4971983;28;20027;-58
2022/03/25 06:34:38;;;;;;;17.67;15.98;;;665.90;793.60;;;;;;4971536;28;20117;-59
2022/03/25 06:37:04;;;;;;;18.55;16.58;;;665.70;793.60;;;;;;4972017;28;20396;-60
2022/03/25 06:39:30;;;;;;;27.98;19.02;;;640.80;768.00;;;;;;4971879;28;20027;-59
2022/03/25 06:41:56;;;;;;;19.45;17.55;;;665.90;768.00;;;;;;4971483;28;20041;-59
2022/03/25 06:44:22;;;;;;;26.25;19.75;;;666.20;768.00;;;;;;4971805;28;20393;-59
2022/03/25 06:46:48;;;;;;;22.77;20.65;;;691.30;768.00;;;;;;4971664;28;20038;-59
2022/03/25 06:49:14;;;;;;;22.27;19.98;;;691.30;768.00;;;;;;4971500;28;20035;-60
2022/03/25 06:51:40;;;;;;;24.17;21.67;;;691.20;768.00;;;;;;4971550;28;20433;-59
2022/03/25 06:54:06;;;;;;;23.60;21.15;;;691.40;768.00;;;;;;4970978;28;20198;-65
2022/03/25 06:56:35;;;;;;;23.88;21.58;;;691.90;742.40;;;;;;4971624;28;20023;-60
2022/03/25 06:59:02;;;;;;;23.85;21.48;;;717.40;716.80;;;;;;4971818;28;20041;-61
2022/03/25 07:01:28;;;;;;;23.40;21.30;;;717.50;716.80;;;;;;4971361;28;20031;-60
2022/03/25 07:03:54;;;;;;;22.63;20.08;;;717.70;716.80;;;;;;4971557;28;20588;-61
2022/03/25 07:06:24;;;;;;;22.25;20.15;;;743.10;716.80;;;;;;4971749;28;20409;-61
2022/03/25 07:08:56;;;;;;;24.10;21.10;;;768.30;691.20;;;;;;4971602;28;20093;-59
2022/03/25 07:11:23;;;;;;;25.35;20.95;;;768.90;665.60;;;;;;4971549;28;20031;-58
2022/03/25 07:13:50;;;;;;;21.70;19.48;;;794.40;665.60;;;;;;4971433;28;20026;-60
2022/03/25 07:16:17;;;;;;;22.48;19.90;;;794.50;665.60;;;;;;4971409;28;20436;-60
2022/03/25 07:18:43;;;;;;;19.88;18.05;;;794.50;665.60;;;;;;4971460;28;20033;-62
2022/03/25 07:21:09;;;;;;;21.05;18.90;;;794.20;665.60;;;;;;4971320;28;20026;-63
2022/03/25 07:23:35;;;;;;;30.85;27.70;;;794.40;640.00;;;;;;4971067;28;20038;-63
2022/03/25 07:26:02;;;;;;;18.85;16.95;;;819.80;614.40;;;;;;4971199;28;20037;-60
2022/03/25 07:28:27;;;;;;;16.65;14.70;;;819.80;614.40;;;;;;4971115;28;20051;-62
2022/03/25 07:30:53;;;;;;;14.32;12.93;;;845.00;640.00;;;;;;4971428;28;20408;-62
2022/03/25 07:33:19;;;;;;;16.58;14.93;;;819.40;640.00;;;;;;4971121;28;20035;-60
2022/03/25 07:35:45;;;;;;;16.83;15.02;;;820.00;614.40;;;;;;4971169;28;20042;-59
2022/03/25 07:38:10;;;;;;;17.60;15.25;;;845.40;614.40;;;;;;4971124;28;20062;-59
2022/03/25 07:40:36;;;;;;;18.33;15.23;;;845.20;614.40;;;;;;4970827;28;20064;-58
2022/03/25 07:43:02;;;;;;;15.60;14.00;;;845.40;614.40;;;;;;4971205;28;20385;-60
2022/03/25 07:45:28;;;;;;;16.38;14.85;;;845.00;614.40;;;;;;4971166;28;20481;-60
2022/03/25 07:47:54;;;;;;;16.13;14.55;;;845.60;614.40;;;;;;4971341;28;20466;-57
2022/03/25 07:50:22;;;;;;;15.60;14.00;;;870.50;614.40;;;;;;4971186;28;20469;-58
2022/03/25 07:52:50;;;;;;;27.85;19.52;;;871.30;563.20;;;;;;4971126;28;20027;-58
2022/03/25 07:55:18;;;;;;;16.13;14.52;;;896.70;537.60;;;;;;4970826;28;20388;-59
2022/03/25 07:57:44;;;;;;;17.33;15.50;;;896.50;563.20;;;;;;4971209;28;20058;-56
2022/03/25 08:00:11;;;;;;;16.27;14.57;;;896.80;563.20;;;;;;4971234;28;20050;-57
2022/03/25 08:02:55;;;;;;;15.60;14.05;;;921.80;537.60;;;;;;4970775;28;20482;-56
2022/03/25 08:05:21;;;;;;;14.82;13.45;;;896.60;563.20;;;;;;4972594;28;20070;-56
2022/03/25 08:07:54;;;;;;;16.33;13.40;;;896.20;563.20;;;;;;4955922;28;20482;-57
2022/03/25 08:10:30;;;;;;;16.75;15.20;;;896.40;563.20;;;;;;4974835;28;20355;-56
2022/03/25 08:12:57;;;;;;;19.90;17.77;;;896.90;537.60;;;;;;4974469;28;20078;-58
2022/03/25 08:15:24;;;;;;;20.20;17.63;;;922.30;537.60;;;;;;4974614;28;20031;-58
2022/03/25 08:18:05;;;;;;;16.38;14.65;;;870.80;588.80;;;;;;4974484;28;20041;-57
2022/03/25 08:20:49;;;;;;;26.30;23.20;;;896.10;563.20;;;;;;4974306;28;20023;-57
2022/03/25 08:28:46;;;;;;;19.38;16.77;;;896.60;537.60;;;;;;4974188;28;20499;-56
2022/03/25 08:31:13;;;;;;;16.20;14.38;;;896.20;563.20;;;;;;4974182;28;20026;-56
2022/03/25 08:33:39;;;;;;;24.50;22.00;;;896.60;537.60;;;;;;4973979;28;20066;-57
2022/03/25 08:36:04;;;;;;;27.23;20.33;;;896.20;537.60;;;;;;4973983;28;20043;-58
2022/03/25 08:38:30;;;;;;;16.27;14.70;;;870.90;563.20;;;;;;4974144;28;20430;-56
2022/03/25 08:40:56;;;;;;;14.68;13.30;;;819.60;614.40;;;;;;4973965;28;20477;-56
2022/03/25 08:43:22;;;;;;;13.85;12.40;;;870.50;563.20;;;;;;4973899;28;20046;-56
2022/03/25 08:45:48;;;;;;;16.73;12.48;;;870.70;563.20;;;;;;4973973;28;20039;-56
2022/03/25 08:48:13;;;;;;;12.82;11.57;;;845.70;588.80;;;;;;4974115;28;20074;-59
2022/03/25 08:50:39;;;;;;;13.35;11.43;;;820.10;588.80;;;;;;4954977;28;20027;-59
2022/03/25 08:53:06;;;;;;;13.00;11.25;;;819.50;614.40;;;;;;4973702;28;20069;-59
2022/03/25 08:55:31;;;;;;;11.07;9.38;;;819.20;640.00;;;;;;4973914;28;20026;-58
2022/03/25 08:57:57;;;;;;;12.43;10.90;;;819.30;640.00;;;;;;4973825;28;20027;-58
2022/03/25 09:00:23;;;;;;;14.27;12.63;;;819.80;614.40;;;;;;4973786;28;20027;-58
2022/03/25 09:02:49;;;;;;;10.90;9.80;;;819.80;614.40;;;;;;4973667;28;20523;-58
2022/03/25 09:05:15;;;;;;;14.35;11.40;;;794.10;665.60;;;;;;4973422;28;20129;-58
2022/03/25 09:07:43;;;;;;;14.40;12.90;;;743.10;640.00;;;;;;4973499;28;20504;-58
2022/03/25 09:10:12;;;;;;;13.85;12.25;;;716.90;691.20;;;;;;4973379;28;20066;-58
2022/03/25 09:12:38;;;;;;;16.55;11.93;;;691.20;716.80;;;;;;4973128;28;20066;-58
2022/03/25 09:15:06;;;;;;;12.75;8.48;;;665.80;716.80;;;;;;4973438;28;20065;-58
2022/03/25 09:17:32;;;;;;;10.27;7.70;;;640.10;742.40;;;;;;4973247;28;20026;-58
2022/03/25 09:19:57;;;;;;;11.73;7.60;;;614.40;793.60;;;;;;4973424;28;20375;-58
2022/03/25 09:22:23;;;;;;;12.52;8.55;;;614.40;793.60;;;;;;4973466;28;20753;-59
2022/03/25 09:24:49;;;;;;;9.50;7.47;;;589.70;768.00;;;;;;4973481;28;20027;-58
2022/03/25 09:27:15;;;;;;;9.98;7.32;;;589.30;793.60;;;;;;4972926;28;20529;-57
2022/03/25 09:29:41;;;;;;;13.65;8.60;;;589.00;819.20;;;;;;4973093;28;20042;-58
2022/03/25 09:32:07;;;;;;;9.65;7.65;;;564.00;819.20;;;;;;4972943;28;20500;-57
2022/03/25 09:37:18;;;;;;;9.63;7.43;;;563.70;819.20;;;;;;4973178;28;20122;-58
2022/03/25 09:39:43;;;;;;;8.57;6.15;;;563.40;819.20;;;;;;4973136;28;20050;-57
2022/03/25 09:42:09;;;;;;;10.68;6.45;;;563.30;844.80;;;;;;4972734;28;20027;-57
2022/03/25 09:44:39;;;;;;;10.65;8.23;;;538.30;819.20;;;;;;4972658;28;20035;-57
2022/03/25 09:47:05;;;;;;;9.13;6.70;;;538.00;819.20;;;;;;4972910;28;20033;-57
2022/03/25 09:49:31;;;;;;;11.38;9.20;;;538.20;819.20;;;;;;4972848;28;20027;-57
2022/03/25 09:51:58;;;;;;;12.98;6.97;;;538.20;819.20;;;;;;4972661;28;20382;-57
2022/03/25 09:54:25;;;;;;;12.48;7.53;;;538.10;844.80;;;;;;4972518;28;20035;-58
2022/03/25 09:56:51;;;;;;;8.38;5.78;;;538.40;844.80;;;;;;4972795;28;20050;-57
2022/03/25 09:59:18;;;;;;;10.88;6.30;;;538.10;870.40;;;;;;4972463;28;20132;-57
2022/03/25 10:01:44;;;;;;;13.18;7.13;;;538.30;844.80;;;;;;4972534;28;20023;-58
2022/03/25 10:04:40;;;;;;;17.73;7.38;;;538.10;844.80;;;;;;4972426;28;20101;-57
2022/03/25 10:07:22;;;;;;;9.55;6.07;;;512.90;793.60;;;;;;4972343;28;20157;-58
2022/03/25 10:10:05;;;;;;;11.70;5.80;;;537.80;844.80;;;;;;4972680;28;20279;-58
2022/03/25 10:12:31;;;;;;;6.65;5.53;;;537.80;819.20;;;;;;4972306;28;20034;-58
2022/03/25 10:15:16;;;;;;;10.25;6.80;;;537.70;819.20;;;;;;4972312;28;20034;-58
2022/03/25 10:17:49;;;;;;;8.30;5.80;;;537.60;819.20;;;;;;4972329;28;20023;-58
2022/03/25 10:20:16;;;;;;;8.95;6.85;;;512.90;793.60;;;;;;4972073;28;20073;-56
2022/03/25 10:22:56;;;;;;;9.10;6.95;;;512.60;793.60;;;;;;4972118;28;20031;-57
2022/03/25 10:25:53;;;;;;;9.80;6.65;;;537.60;844.80;;;;;;4972204;28;20068;-56
2022/03/25 10:28:23;;;;;;;14.13;6.57;;;537.70;870.40;;;;;;4892944;29;20531;-57
2022/03/25 10:30:51;;;;;;;8.32;5.82;;;512.70;793.60;;;;;;4893857;29;20063;-57
2022/03/25 10:33:24;;;;;;;11.43;5.90;;;512.80;793.60;;;;;;4893437;29;20040;-56
2022/03/25 10:36:07;;;;;;;8.55;6.25;;;512.10;768.00;;;;;;4893753;29;20163;-59
2022/03/25 10:38:42;;;;;;;11.32;5.60;;;512.00;793.60;;;;;;4893257;29;20141;-57
2022/03/25 10:41:08;;;;;;;8.35;5.72;;;487.00;793.60;;;;;;4893179;29;20547;-57
2022/03/25 10:43:34;;;;;;;14.10;7.53;;;486.90;819.20;;;;;;4893203;29;20043;-57
2022/03/25 10:45:59;;;;;;;11.10;7.30;;;487.10;844.80;;;;;;4893551;29;20049;-58
2022/03/25 10:48:25;;;;;;;13.63;8.80;;;486.80;844.80;;;;;;4893239;29;20071;-61
2022/03/25 10:51:10;;;;;;;10.27;7.90;;;461.70;870.40;;;;;;4893608;29;20063;-59
2022/03/25 10:53:38;;;;;;;13.38;8.20;;;461.70;896.00;;;;;;4893093;29;20124;-61
2022/03/25 10:56:07;;;;;;;14.63;10.77;;;486.60;896.00;;;;;;4893313;29;20040;-58
2022/03/25 10:58:34;;;;;;;11.25;8.60;;;486.80;896.00;;;;;;4893274;29;20067;-61
2022/03/25 11:01:01;;;;;;;11.68;7.07;;;487.20;870.40;;;;;;4893401;29;20156;-59
2022/03/25 11:03:27;;;;;;;12.63;8.23;;;487.10;896.00;;;;;;4892902;28;20127;-59
2022/03/25 11:05:54;;;;;;;12.50;7.97;;;486.80;896.00;;;;;;4963567;28;20042;-61
2022/03/25 11:08:20;;;;;;;14.15;10.68;;;486.60;921.60;;;;;;4971499;28;20035;-61
2022/03/25 11:10:46;;;;;;;13.13;8.73;;;486.80;921.60;;;;;;4971417;28;20038;-60
2022/03/25 11:13:12;;;;;;;9.95;7.15;;;486.60;921.60;;;;;;4971579;28;20026;-60
2022/03/25 11:15:39;;;;;;;12.25;8.48;;;486.60;921.60;;;;;;4971316;28;20058;-62
2022/03/25 11:18:05;;;;;;;17.42;9.55;;;486.40;921.60;;;;;;4971101;28;20034;-60
2022/03/25 11:20:31;;;;;;;11.82;8.65;;;486.80;921.60;;;;;;4971460;28;20426;-60
2022/03/25 11:23:18;;;;;;;16.38;10.13;;;486.90;947.20;;;;;;4971107;28;20106;-61
2022/03/25 11:25:51;;;;;;;11.40;9.13;;;486.80;896.00;;;;;;4953121;28;20443;-61
2022/03/25 11:28:19;;;;;;;10.65;7.38;;;461.50;921.60;;;;;;4971086;28;20031;-60
2022/03/25 11:31:04;;;;;;;20.38;10.15;;;486.70;921.60;;;;;;4970959;28;20434;-60
2022/03/25 11:33:30;;;;;;;13.20;9.80;;;487.00;896.00;;;;;;4971191;28;20030;-61
2022/03/25 11:36:18;;;;;;;18.45;9.50;;;486.80;921.60;;;;;;4971180;28;20031;-59
2022/03/25 11:38:44;;;;;;;15.18;9.05;;;486.90;921.60;;;;;;4971659;28;20062;-59
2022/03/25 11:41:27;;;;;;;15.23;9.88;;;487.00;921.60;;;;;;4975070;28;20027;-60
2022/03/25 11:44:14;;;;;;;21.63;12.10;;;487.00;896.00;;;;;;4975181;28;20030;-59
2022/03/25 11:46:58;;;;;;;12.70;9.40;;;486.80;921.60;;;;;;4975190;28;20035;-63
2022/03/25 11:49:26;;;;;;;14.38;9.45;;;487.10;896.00;;;;;;4974974;28;20038;-59
2022/03/25 11:51:51;;;;;;;15.48;10.50;;;487.30;921.60;;;;;;4975017;28;20354;-58
2022/03/25 11:54:40;;;;;;;12.00;10.30;;;487.30;921.60;;;;;;4974870;28;20054;-58
2022/03/25 11:57:20;;;;;;;14.63;11.27;;;486.80;921.60;;;;;;4974744;28;20035;-57
2022/03/25 11:59:52;;;;;;;14.15;10.10;;;486.70;921.60;;;;;;4974902;28;20490;-58
2022/03/25 12:02:29;;;;;;;17.23;11.25;;;486.70;921.60;;;;;;4954061;29;20027;-58
2022/03/25 12:04:57;;;;;;;21.75;15.57;;;461.60;947.20;;;;;;4966831;28;20398;-58
2022/03/25 12:07:22;;;;;;;17.38;11.07;;;486.70;972.80;;;;;;4975220;28;20038;-57
2022/03/25 12:09:48;;;;;;;14.15;10.02;;;486.90;947.20;;;;;;4974509;28;20035;-57
2022/03/25 12:12:14;;;;;;;20.17;12.90;;;486.70;947.20;;;;;;4974374;28;20031;-58
2022/03/25 12:15:06;;;;;;;14.98;11.63;;;487.00;947.20;;;;;;4974519;28;20474;-58
2022/03/25 12:17:32;;;;;;;14.88;10.32;;;486.70;947.20;;;;;;4974666;28;20027;-58